Time;durP1;ratioP1;P1;durP2;ratioP2;P2;SDS_P1;SDS_P2;PMS_P1;PMS_P2;Temp;Humidity;BMP_temperature;BMP_pressure;BME280_temperature;BME280_humidity;BME280_pressure;Samples;Min_cycle;Max_cycle;Signal;HPM_P1;HPM_P2
2023/12/18 00:00:03;;;;;;;;;;;-0.40;99.90;;;;;;5055381;28;19917;-80
2023/12/18 00:02:30;;;;;;;;;;;-0.30;99.90;;;;;;5054310;28;19924;-79
2023/12/18 00:04:55;;;;;;;;;;;-0.20;99.90;;;;;;5057807;28;19921;-80
2023/12/18 00:07:21;;;;;;;;;;;-0.20;99.90;;;;;;5055733;28;19928;-80
2023/12/18 00:09:47;;;;;;;;;;;-0.20;99.90;;;;;;5054012;28;19970;-81
2023/12/18 00:12:12;;;;;;;;;;;-0.20;99.90;;;;;;5054386;28;19916;-80
2023/12/18 00:14:38;;;;;;;;;;;-0.20;99.90;;;;;;5057114;28;19955;-80
2023/12/18 00:17:04;;;;;;;;;;;-0.20;99.90;;;;;;5053586;28;20369;-79
2023/12/18 00:19:48;;;;;;;;;;;-0.20;99.90;;;;;;5058123;28;20035;-80
2023/12/18 00:22:14;;;;;;;;;;;-0.20;99.90;;;;;;5059634;28;20421;-81
2023/12/18 00:24:39;;;;;;;;;;;-0.20;99.90;;;;;;5057764;28;19920;-80
2023/12/18 00:27:05;;;;;;;;;;;-0.20;99.90;;;;;;5060679;28;19928;-80
2023/12/18 00:29:30;;;;;;;;;;;-0.20;99.90;;;;;;5059609;28;19925;-80
2023/12/18 00:31:56;;;;;;;;;;;-0.20;99.90;;;;;;5053265;28;20455;-79
2023/12/18 00:34:22;;;;;;;;;;;-0.20;99.90;;;;;;5055663;28;19980;-81
2023/12/18 00:36:47;;;;;;;;;;;-0.20;99.90;;;;;;5056615;28;19913;-81
2023/12/18 00:39:15;;;;;;;;;;;-0.20;99.90;;;;;;5033969;28;20304;-81
2023/12/18 00:41:41;;;;;;;;;;;-0.20;99.90;;;;;;5048704;28;20296;-81
2023/12/18 00:44:07;;;;;;;;;;;-0.20;99.90;;;;;;5054249;28;19917;-80
2023/12/18 00:46:33;;;;;;;;;;;-0.20;99.90;;;;;;5053102;28;19923;-79
2023/12/18 00:48:58;;;;;;;;;;;-0.20;99.90;;;;;;5052755;28;20385;-80
2023/12/18 00:51:24;;;;;;;;;;;-0.20;99.90;;;;;;5052507;28;19936;-82
2023/12/18 00:53:50;;;;;;;;;;;-0.20;99.90;;;;;;5055073;28;19925;-80
2023/12/18 00:56:15;;;;;;;;;;;-0.20;99.90;;;;;;5052758;28;20566;-82
2023/12/18 00:58:41;;;;;;;;;;;-0.20;99.90;;;;;;5052598;28;19917;-80
2023/12/18 01:01:06;;;;;;;;;;;-0.20;99.90;;;;;;5055397;28;19917;-80
2023/12/18 01:03:32;;;;;;;;;;;-0.20;99.90;;;;;;5045309;28;19917;-80
2023/12/18 01:05:58;;;;;;;;;;;-0.20;99.90;;;;;;5054657;28;19921;-81
2023/12/18 01:08:23;;;;;;;;;;;-0.30;99.90;;;;;;5054893;28;19913;-80
2023/12/18 01:10:49;;;;;;;;;;;-0.30;99.90;;;;;;5052682;28;20387;-81
2023/12/18 01:13:14;;;;;;;;;;;-0.30;99.90;;;;;;5052579;28;20299;-81
2023/12/18 01:15:40;;;;;;;;;;;-0.40;99.90;;;;;;5049687;28;19932;-80
2023/12/18 01:18:06;;;;;;;;;;;-0.40;99.90;;;;;;5051799;28;20016;-82
2023/12/18 01:20:32;;;;;;;;;;;-0.30;99.90;;;;;;5045675;28;19999;-80
2023/12/18 01:22:58;;;;;;;;;;;-0.30;99.90;;;;;;5055041;28;20449;-80
2023/12/18 01:25:23;;;;;;;;;;;-0.30;99.90;;;;;;5053127;28;19929;-80
2023/12/18 01:27:49;;;;;;;;;;;-0.40;99.90;;;;;;5053224;28;19939;-83
2023/12/18 01:30:14;;;;;;;;;;;-0.40;99.90;;;;;;5055062;28;19927;-81
2023/12/18 01:32:42;;;;;;;;;;;-0.30;99.90;;;;;;5053477;28;19975;-81
2023/12/18 01:35:07;;;;;;;;;;;-0.30;99.90;;;;;;5050557;28;19917;-81
2023/12/18 01:37:33;;;;;;;;;;;-0.40;99.90;;;;;;5054501;28;20365;-81
2023/12/18 01:39:58;;;;;;;;;;;-0.40;99.90;;;;;;5055222;28;19938;-81
2023/12/18 01:42:24;;;;;;;;;;;-0.40;99.90;;;;;;5049034;28;19921;-81
2023/12/18 01:44:49;;;;;;;;;;;-0.40;99.90;;;;;;5048557;28;19921;-81
2023/12/18 01:47:16;;;;;;;;;;;-0.40;99.90;;;;;;5054520;28;20000;-81
2023/12/18 01:49:42;;;;;;;;;;;-0.40;99.90;;;;;;5053355;28;19917;-81
2023/12/18 01:52:08;;;;;;;;;;;-0.50;99.90;;;;;;5055257;28;19916;-81
2023/12/18 01:54:33;;;;;;;;;;;-0.50;99.90;;;;;;5052154;28;19923;-80
2023/12/18 01:57:00;;;;;;;;;;;-0.40;99.90;;;;;;5051179;28;19917;-81
2023/12/18 01:59:26;;;;;;;;;;;-0.40;99.90;;;;;;5037797;28;19993;-81
2023/12/18 02:01:51;;;;;;;;;;;-0.50;99.90;;;;;;5049669;28;19963;-81
2023/12/18 02:04:18;;;;;;;;;;;-0.50;99.90;;;;;;5057937;28;19912;-80
2023/12/18 02:06:44;;;;;;;;;;;-0.60;99.90;;;;;;5030251;28;19917;-80
2023/12/18 02:09:11;;;;;;;;;;;-0.60;99.90;;;;;;5049204;28;19928;-81
2023/12/18 02:11:36;;;;;;;;;;;-0.70;99.90;;;;;;5050683;28;19921;-80
2023/12/18 02:14:02;;;;;;;;;;;-0.60;99.90;;;;;;5051343;28;20508;-80
2023/12/18 02:16:28;;;;;;;;;;;-0.50;99.90;;;;;;5056954;28;20403;-80
2023/12/18 02:18:54;;;;;;;;;;;-0.60;99.90;;;;;;5050986;28;19921;-81
2023/12/18 02:21:21;;;;;;;;;;;-0.60;99.90;;;;;;5050539;28;19916;-80
2023/12/18 02:23:47;;;;;;;;;;;-0.60;99.90;;;;;;5067749;28;19924;-81
2023/12/18 02:26:13;;;;;;;;;;;-0.60;99.90;;;;;;5057461;28;19923;-81
2023/12/18 02:28:38;;;;;;;;;;;-0.60;99.90;;;;;;5057588;28;19921;-82
2023/12/18 02:31:04;;;;;;;;;;;-0.60;99.90;;;;;;5051111;28;19939;-79
2023/12/18 02:33:30;;;;;;;;;;;-0.70;99.90;;;;;;5055134;28;19913;-79
2023/12/18 02:35:56;;;;;;;;;;;-0.70;99.90;;;;;;5057393;28;19925;-80
2023/12/18 02:38:22;;;;;;;;;;;-0.60;99.90;;;;;;5060505;28;20001;-79
2023/12/18 02:40:48;;;;;;;;;;;-0.60;99.90;;;;;;5055594;28;21639;-81
2023/12/18 02:43:13;;;;;;;;;;;-0.60;99.90;;;;;;5061144;28;19913;-80
2023/12/18 02:45:39;;;;;;;;;;;-0.60;99.90;;;;;;5053083;28;19925;-80
2023/12/18 02:48:05;;;;;;;;;;;-0.60;99.90;;;;;;5059559;28;19917;-80
2023/12/18 02:50:30;;;;;;;;;;;-0.50;99.90;;;;;;5052495;28;19923;-80
2023/12/18 02:52:56;;;;;;;;;;;-0.50;99.90;;;;;;5055738;28;20355;-80
2023/12/18 02:55:22;;;;;;;;;;;-0.60;99.90;;;;;;5054970;28;19923;-81
2023/12/18 02:57:47;;;;;;;;;;;-0.60;99.90;;;;;;5052082;28;19970;-80
2023/12/18 03:00:13;;;;;;;;;;;-0.50;99.90;;;;;;5059325;28;20364;-81
2023/12/18 03:02:40;;;;;;;;;;;-0.50;99.90;;;;;;5058806;28;20632;-81
2023/12/18 03:05:06;;;;;;;;;;;-0.60;99.90;;;;;;5058964;28;20384;-79
2023/12/18 03:07:31;;;;;;;;;;;-0.60;99.90;;;;;;5062622;28;19917;-81
2023/12/18 03:09:57;;;;;;;;;;;-0.70;99.90;;;;;;5051592;28;19924;-82
2023/12/18 03:12:23;;;;;;;;;;;-0.60;99.90;;;;;;5057398;28;20008;-81
2023/12/18 03:14:48;;;;;;;;;;;-0.70;99.90;;;;;;5050622;28;19951;-80
2023/12/18 03:17:14;;;;;;;;;;;-0.70;99.90;;;;;;5046753;28;20481;-81
2023/12/18 03:19:39;;;;;;;;;;;-0.70;99.90;;;;;;5053260;28;19921;-82
2023/12/18 03:22:05;;;;;;;;;;;-0.70;99.90;;;;;;5055171;28;20381;-80
2023/12/18 03:24:31;;;;;;;;;;;-0.70;99.90;;;;;;5054113;28;20388;-80
2023/12/18 03:26:57;;;;;;;;;;;-0.70;99.90;;;;;;5052301;28;19917;-80
2023/12/18 03:29:23;;;;;;;;;;;-0.70;99.90;;;;;;5034898;28;19940;-81
2023/12/18 03:31:48;;;;;;;;;;;-0.60;99.90;;;;;;5053202;28;20274;-80
2023/12/18 03:34:14;;;;;;;;;;;-0.70;99.90;;;;;;5056246;28;19913;-81
2023/12/18 03:36:39;;;;;;;;;;;-0.80;99.90;;;;;;5051848;28;20035;-79
2023/12/18 03:39:05;;;;;;;;;;;-0.80;99.90;;;;;;5052975;28;19921;-79
2023/12/18 03:41:31;;;;;;;;;;;-0.80;99.90;;;;;;5055886;28;19916;-81
2023/12/18 03:43:56;;;;;;;;;;;-0.80;99.90;;;;;;5052279;28;19958;-81
2023/12/18 03:46:22;;;;;;;;;;;-0.90;99.90;;;;;;5050756;28;20324;-79
2023/12/18 03:48:48;;;;;;;;;;;-0.90;99.90;;;;;;5050968;28;19920;-79
2023/12/18 03:51:13;;;;;;;;;;;-0.90;99.90;;;;;;5051868;28;20398;-81
2023/12/18 03:53:39;;;;;;;;;;;-0.90;99.90;;;;;;5055190;28;19920;-82
2023/12/18 03:56:05;;;;;;;;;;;-0.90;99.90;;;;;;5051807;28;19999;-79
2023/12/18 03:58:31;;;;;;;;;;;-0.90;99.90;;;;;;5050580;28;20191;-81
2023/12/18 04:00:56;;;;;;;;;;;-1.00;99.90;;;;;;5056791;28;20016;-80
2023/12/18 04:03:22;;;;;;;;;;;-1.00;99.90;;;;;;5031316;28;19925;-81
2023/12/18 04:05:47;;;;;;;;;;;-1.00;99.90;;;;;;5054051;28;20476;-81
2023/12/18 04:08:13;;;;;;;;;;;-1.10;99.90;;;;;;5055936;28;19932;-82
2023/12/18 04:10:39;;;;;;;;;;;-1.10;99.90;;;;;;5057942;28;19923;-81
2023/12/18 04:13:04;;;;;;;;;;;-1.10;99.90;;;;;;5055900;28;20343;-80
2023/12/18 04:15:30;;;;;;;;;;;-1.10;99.90;;;;;;5058221;28;19921;-80
2023/12/18 04:17:56;;;;;;;;;;;-1.10;99.90;;;;;;5055155;28;19925;-79
2023/12/18 04:20:21;;;;;;;;;;;-1.10;99.90;;;;;;5054247;28;19921;-81
2023/12/18 04:22:47;;;;;;;;;;;-1.10;99.90;;;;;;5041176;28;19917;-79
2023/12/18 04:25:13;;;;;;;;;;;-1.00;99.90;;;;;;5061051;28;20011;-81
2023/12/18 04:27:38;;;;;;;;;;;-0.90;99.90;;;;;;5055399;28;19948;-80
2023/12/18 04:30:04;;;;;;;;;;;-0.80;99.90;;;;;;5056056;28;19917;-81
2023/12/18 04:32:30;;;;;;;;;;;-0.70;99.90;;;;;;5056119;28;19921;-79
2023/12/18 04:34:55;;;;;;;;;;;-0.70;99.90;;;;;;5060065;28;19917;-81
2023/12/18 04:37:22;;;;;;;;;;;-0.60;99.90;;;;;;5058507;28;20439;-81
2023/12/18 04:39:47;;;;;;;;;;;-0.60;99.90;;;;;;5060671;28;20395;-81
2023/12/18 04:42:13;;;;;;;;;;;-0.60;99.90;;;;;;5059312;28;19917;-81
2023/12/18 04:44:38;;;;;;;;;;;-0.60;99.90;;;;;;5057529;28;19969;-80
2023/12/18 04:47:04;;;;;;;;;;;-0.60;99.90;;;;;;5058496;28;20297;-82
2023/12/18 04:49:30;;;;;;;;;;;-0.60;99.90;;;;;;5057518;28;19968;-81
2023/12/18 04:51:55;;;;;;;;;;;-0.60;99.90;;;;;;5061647;28;19916;-81
2023/12/18 04:54:21;;;;;;;;;;;-0.60;99.90;;;;;;5063060;28;19917;-81
2023/12/18 04:56:46;;;;;;;;;;;-0.60;99.90;;;;;;5060326;28;19928;-81
2023/12/18 04:59:13;;;;;;;;;;;-0.60;99.90;;;;;;5064601;28;19980;-81
2023/12/18 05:01:39;;;;;;;;;;;-0.60;99.90;;;;;;5050438;28;19917;-81
2023/12/18 05:04:05;;;;;;;;;;;-0.60;99.90;;;;;;5044994;28;20004;-81
2023/12/18 05:06:30;;;;;;;;;;;-0.70;99.90;;;;;;5049292;28;20402;-80
2023/12/18 05:08:56;;;;;;;;;;;-0.70;99.90;;;;;;5053552;28;19925;-81
2023/12/18 05:11:22;;;;;;;;;;;-0.70;99.90;;;;;;5053239;28;20012;-81
2023/12/18 05:13:48;;;;;;;;;;;-0.70;99.90;;;;;;5054307;28;19966;-81
2023/12/18 05:16:14;;;;;;;;;;;-0.70;99.90;;;;;;5053448;28;19916;-81
2023/12/18 05:18:40;;;;;;;;;;;-0.70;99.90;;;;;;5050551;28;19916;-81
2023/12/18 05:21:05;;;;;;;;;;;-0.80;99.90;;;;;;5054644;28;19920;-81
2023/12/18 05:23:31;;;;;;;;;;;-0.90;99.90;;;;;;5053918;28;19928;-80
2023/12/18 05:25:57;;;;;;;;;;;-0.90;99.90;;;;;;5051383;28;20019;-80
2023/12/18 05:28:22;;;;;;;;;;;-0.90;99.90;;;;;;5047037;28;20021;-80
2023/12/18 05:30:48;;;;;;;;;;;-0.90;99.90;;;;;;5056771;28;20531;-81
2023/12/18 05:33:14;;;;;;;;;;;-0.90;99.90;;;;;;5051515;28;19917;-81
2023/12/18 05:35:39;;;;;;;;;;;-1.00;99.90;;;;;;5050665;28;20304;-81
2023/12/18 05:38:07;;;;;;;;;;;-1.00;99.90;;;;;;5050843;28;20085;-80
2023/12/18 05:40:36;;;;;;;;;;;-0.90;99.90;;;;;;5055103;28;19925;-81
2023/12/18 05:43:02;;;;;;;;;;;-0.90;99.90;;;;;;5052333;28;20385;-81
2023/12/18 05:45:28;;;;;;;;;;;-1.00;99.90;;;;;;5052014;28;19928;-81
2023/12/18 05:47:54;;;;;;;;;;;-1.00;99.90;;;;;;5052378;28;19925;-80
2023/12/18 05:50:20;;;;;;;;;;;-0.90;99.90;;;;;;5052176;28;19917;-80
2023/12/18 05:52:46;;;;;;;;;;;-0.90;99.90;;;;;;5046279;28;19999;-80
2023/12/18 05:55:11;;;;;;;;;;;-0.90;99.90;;;;;;5051356;28;19917;-81
2023/12/18 05:57:37;;;;;;;;;;;-0.90;99.90;;;;;;5055940;28;20384;-81
2023/12/18 06:00:06;;;;;;;;;;;-0.90;99.90;;;;;;5030457;28;19924;-81
2023/12/18 06:02:32;;;;;;;;;;;-0.90;99.90;;;;;;5053745;28;19939;-81
2023/12/18 06:04:58;;;;;;;;;;;-0.90;99.90;;;;;;5060661;28;19928;-80
2023/12/18 06:07:24;;;;;;;;;;;-1.00;99.90;;;;;;5057536;28;19917;-82
2023/12/18 06:09:49;;;;;;;;;;;-1.10;99.90;;;;;;5059033;28;19916;-80
2023/12/18 06:12:15;;;;;;;;;;;-1.20;99.90;;;;;;5063462;28;19920;-81
2023/12/18 06:14:40;;;;;;;;;;;-1.20;99.90;;;;;;5053318;28;19917;-81
2023/12/18 06:17:06;;;;;;;;;;;-1.30;99.90;;;;;;5058783;28;19921;-80
2023/12/18 06:19:34;;;;;;;;;;;-1.20;99.90;;;;;;5047762;28;20346;-80
2023/12/18 06:22:01;;;;;;;;;;;-1.20;99.90;;;;;;5060147;28;19917;-79
2023/12/18 06:24:26;;;;;;;;;;;-1.30;99.90;;;;;;5053037;28;19917;-81
2023/12/18 06:26:53;;;;;;;;;;;-1.40;99.90;;;;;;5053841;28;21185;-79
2023/12/18 06:29:19;;;;;;;;;;;-1.30;99.90;;;;;;5064056;28;20524;-80
2023/12/18 06:31:44;;;;;;;;;;;-1.30;99.90;;;;;;5054064;28;20018;-82
2023/12/18 06:34:11;;;;;;;;;;;-1.30;99.90;;;;;;5056743;28;20019;-82
2023/12/18 06:36:37;;;;;;;;;;;-1.30;99.90;;;;;;5058429;28;20384;-81
2023/12/18 06:39:03;;;;;;;;;;;-1.20;99.90;;;;;;5057922;28;19979;-81
2023/12/18 06:41:29;;;;;;;;;;;-1.20;99.90;;;;;;5060547;28;19913;-80
2023/12/18 06:44:13;;;;;;;;;;;-1.20;99.90;;;;;;5056939;28;19919;-82
2023/12/18 06:46:38;;;;;;;;;;;-1.10;99.90;;;;;;5056359;28;20043;-81
2023/12/18 06:49:04;;;;;;;;;;;-1.10;99.90;;;;;;5049942;28;19913;-81
2023/12/18 06:51:30;;;;;;;;;;;-1.10;99.90;;;;;;5050135;28;20384;-80
2023/12/18 06:53:55;;;;;;;;;;;-1.10;99.90;;;;;;5053973;28;20349;-81
2023/12/18 06:56:21;;;;;;;;;;;-1.10;99.90;;;;;;5055228;28;20034;-81
2023/12/18 06:58:47;;;;;;;;;;;-1.00;99.90;;;;;;5054287;28;19917;-81
2023/12/18 07:01:15;;;;;;;;;;;-1.00;99.90;;;;;;5059367;28;19916;-81
2023/12/18 07:03:41;;;;;;;;;;;-1.00;99.90;;;;;;5061930;28;19917;-81
2023/12/18 07:06:07;;;;;;;;;;;-1.10;99.90;;;;;;5057940;28;19991;-81
2023/12/18 07:08:33;;;;;;;;;;;-1.10;99.90;;;;;;5057743;28;20352;-82
2023/12/18 07:10:58;;;;;;;;;;;-1.10;99.90;;;;;;5063877;28;20687;-80
2023/12/18 07:13:24;;;;;;;;;;;-1.10;99.90;;;;;;5056666;28;19916;-80
2023/12/18 07:15:50;;;;;;;;;;;-1.10;99.90;;;;;;5057293;28;20299;-80
2023/12/18 07:18:17;;;;;;;;;;;-1.00;99.90;;;;;;5052133;28;20393;-81
2023/12/18 07:20:43;;;;;;;;;;;-1.00;99.90;;;;;;5059450;28;19913;-81
2023/12/18 07:23:10;;;;;;;;;;;-1.10;99.90;;;;;;5056562;28;19913;-79
2023/12/18 07:25:35;;;;;;;;;;;-1.10;99.90;;;;;;5057522;28;19920;-80
2023/12/18 07:28:01;;;;;;;;;;;-1.10;99.90;;;;;;5054670;28;20575;-80
2023/12/18 07:30:26;;;;;;;;;;;-1.10;99.90;;;;;;5055151;28;20660;-80
2023/12/18 07:32:52;;;;;;;;;;;-1.20;99.90;;;;;;5057834;28;19952;-80
2023/12/18 07:35:18;;;;;;;;;;;-1.30;99.90;;;;;;5052548;28;20454;-81
2023/12/18 07:37:43;;;;;;;;;;;-1.30;99.90;;;;;;5058966;28;19927;-79
2023/12/18 07:40:09;;;;;;;;;;;-1.30;99.90;;;;;;5056791;28;19924;-79
2023/12/18 07:42:35;;;;;;;;;;;-1.30;99.90;;;;;;5057222;28;19977;-79
2023/12/18 07:45:01;;;;;;;;;;;-1.30;99.90;;;;;;5058911;28;20018;-78
2023/12/18 07:47:26;;;;;;;;;;;-1.20;99.90;;;;;;5058351;28;19925;-82
2023/12/18 07:49:52;;;;;;;;;;;-1.20;99.90;;;;;;5068114;28;19923;-81
2023/12/18 07:52:17;;;;;;;;;;;-1.10;99.90;;;;;;5062493;28;19916;-82
2023/12/18 07:54:43;;;;;;;;;;;-1.20;99.90;;;;;;5064288;28;19921;-81
2023/12/18 07:57:08;;;;;;;;;;;-1.20;99.90;;;;;;5062480;28;19935;-80
2023/12/18 07:59:39;;;;;;;;;;;-1.20;99.90;;;;;;5054330;28;19917;-80
2023/12/18 08:02:06;;;;;;;;;;;-1.20;99.90;;;;;;5042071;28;20020;-81
2023/12/18 08:04:31;;;;;;;;;;;-1.10;99.90;;;;;;5056828;28;19917;-80
2023/12/18 08:06:57;;;;;;;;;;;-1.10;99.90;;;;;;5061357;28;19924;-81
2023/12/18 08:09:22;;;;;;;;;;;-1.20;99.90;;;;;;5058924;28;19947;-80
2023/12/18 08:11:48;;;;;;;;;;;-1.20;99.90;;;;;;5057253;28;20003;-80
2023/12/18 08:14:14;;;;;;;;;;;-1.10;99.90;;;;;;5055627;28;19989;-80
2023/12/18 08:16:39;;;;;;;;;;;-1.10;99.90;;;;;;5056659;28;19970;-80
2023/12/18 08:19:05;;;;;;;;;;;-1.00;99.90;;;;;;5054751;28;20594;-80
2023/12/18 08:21:31;;;;;;;;;;;-0.90;99.90;;;;;;5058780;28;19921;-79
2023/12/18 08:23:56;;;;;;;;;;;-0.90;99.90;;;;;;5053744;28;19921;-80
2023/12/18 08:26:22;;;;;;;;;;;-0.90;99.90;;;;;;5060507;28;19943;-79
2023/12/18 08:28:48;;;;;;;;;;;-0.80;99.90;;;;;;5055941;28;19923;-80
2023/12/18 08:31:13;;;;;;;;;;;-0.80;99.90;;;;;;5066609;28;19924;-81
2023/12/18 08:33:40;;;;;;;;;;;-0.70;99.90;;;;;;5067494;28;19912;-81
2023/12/18 08:36:05;;;;;;;;;;;-0.70;99.90;;;;;;5055227;28;19916;-80
2023/12/18 08:38:32;;;;;;;;;;;-0.60;99.90;;;;;;5052858;28;19924;-81
2023/12/18 08:40:57;;;;;;;;;;;-0.60;99.90;;;;;;5061730;28;20380;-80
2023/12/18 08:43:23;;;;;;;;;;;-0.50;99.90;;;;;;5052227;28;19927;-80
2023/12/18 08:45:48;;;;;;;;;;;-0.40;99.90;;;;;;5057276;28;19925;-78
2023/12/18 08:48:15;;;;;;;;;;;-0.40;99.90;;;;;;5053302;28;19913;-79
2023/12/18 08:50:41;;;;;;;;;;;-0.40;99.90;;;;;;5056443;28;19931;-79
2023/12/18 08:53:06;;;;;;;;;;;-0.30;99.90;;;;;;5052756;28;20011;-79
2023/12/18 08:55:32;;;;;;;;;;;-0.30;99.90;;;;;;5050938;28;19916;-80
2023/12/18 08:57:58;;;;;;;;;;;-0.10;99.90;;;;;;5050655;28;19917;-80
2023/12/18 09:00:24;;;;;;;;;;;0.00;99.90;;;;;;5052818;28;20008;-80
2023/12/18 09:02:50;;;;;;;;;;;-0.10;99.90;;;;;;5054141;28;19920;-79
2023/12/18 09:05:15;;;;;;;;;;;0.10;99.90;;;;;;5057555;28;20111;-81
2023/12/18 09:07:41;;;;;;;;;;;0.10;99.90;;;;;;5060240;28;19923;-79
2023/12/18 09:10:07;;;;;;;;;;;0.10;99.90;;;;;;5057812;28;19937;-79
2023/12/18 09:12:33;;;;;;;;;;;0.10;99.90;;;;;;5053700;28;20285;-80
2023/12/18 09:15:01;;;;;;;;;;;0.10;99.90;;;;;;5066373;28;19916;-78
2023/12/18 09:17:28;;;;;;;;;;;0.30;99.90;;;;;;5059810;28;19923;-79
2023/12/18 09:19:54;;;;;;;;;;;0.30;99.90;;;;;;5059950;28;20380;-79
2023/12/18 09:22:19;;;;;;;;;;;0.40;99.90;;;;;;5062572;28;19932;-78
2023/12/18 09:24:45;;;;;;;;;;;0.50;99.90;;;;;;5057529;28;19921;-78
2023/12/18 09:27:10;;;;;;;;;;;0.50;99.90;;;;;;5050743;28;20007;-79
2023/12/18 09:29:36;;;;;;;;;;;0.50;99.90;;;;;;5062445;28;19929;-78
2023/12/18 09:32:02;;;;;;;;;;;0.60;99.90;;;;;;5056430;28;19925;-79
2023/12/18 09:34:29;;;;;;;;;;;0.60;99.90;;;;;;5052293;28;19917;-79
2023/12/18 09:36:55;;;;;;;;;;;0.70;99.90;;;;;;5056238;28;19962;-78
2023/12/18 09:39:20;;;;;;;;;;;0.80;99.90;;;;;;5053514;28;20007;-78
2023/12/18 09:41:46;;;;;;;;;;;0.90;99.90;;;;;;5057134;28;20349;-78
2023/12/18 09:44:12;;;;;;;;;;;0.90;99.90;;;;;;5055952;28;19953;-78
2023/12/18 09:46:37;;;;;;;;;;;0.90;99.90;;;;;;5051028;28;19924;-79
2023/12/18 09:49:03;;;;;;;;;;;1.00;99.90;;;;;;5061949;28;20292;-79
2023/12/18 09:51:30;;;;;;;;;;;1.10;99.90;;;;;;5050025;28;20015;-77
2023/12/18 09:53:56;;;;;;;;;;;1.20;99.90;;;;;;5055903;28;21109;-78
2023/12/18 09:56:22;;;;;;;;;;;1.20;99.90;;;;;;5053737;28;19921;-78
2023/12/18 09:58:48;;;;;;;;;;;1.20;99.90;;;;;;5050011;28;19929;-78
2023/12/18 10:01:14;;;;;;;;;;;1.20;99.90;;;;;;5053310;28;19986;-79
2023/12/18 10:03:39;;;;;;;;;;;1.30;99.90;;;;;;5032189;28;19927;-79
2023/12/18 10:06:05;;;;;;;;;;;1.40;99.90;;;;;;5055244;28;19928;-78
2023/12/18 10:08:31;;;;;;;;;;;1.40;99.90;;;;;;5061069;28;19921;-79
2023/12/18 10:10:56;;;;;;;;;;;1.50;99.90;;;;;;5059191;28;20904;-80
2023/12/18 10:13:23;;;;;;;;;;;1.60;99.90;;;;;;5052316;28;19966;-79
2023/12/18 10:15:50;;;;;;;;;;;1.60;99.90;;;;;;5055822;28;19923;-79
2023/12/18 10:18:19;;;;;;;;;;;1.70;99.90;;;;;;5053608;28;19917;-79
2023/12/18 10:20:47;;;;;;;;;;;1.80;99.90;;;;;;5060920;28;19916;-79
2023/12/18 10:23:12;;;;;;;;;;;1.80;99.90;;;;;;5050943;28;20416;-79
2023/12/18 10:25:38;;;;;;;;;;;1.90;99.90;;;;;;5050034;28;20051;-80
2023/12/18 10:28:04;;;;;;;;;;;1.90;99.90;;;;;;5056307;28;19921;-79
2023/12/18 10:30:29;;;;;;;;;;;2.10;99.90;;;;;;5056903;28;19921;-79
2023/12/18 10:32:56;;;;;;;;;;;2.10;99.90;;;;;;5051448;28;19963;-80
2023/12/18 10:35:22;;;;;;;;;;;2.20;99.90;;;;;;5053235;28;19963;-79
2023/12/18 10:37:54;;;;;;;;;;;2.30;99.90;;;;;;5047831;28;19956;-79
2023/12/18 10:40:22;;;;;;;;;;;2.20;99.90;;;;;;5052513;28;19917;-79
2023/12/18 10:42:54;;;;;;;;;;;2.20;99.90;;;;;;5053609;28;19913;-78
2023/12/18 10:45:21;;;;;;;;;;;2.30;99.90;;;;;;5056001;28;20007;-78
2023/12/18 10:47:47;;;;;;;;;;;2.40;99.90;;;;;;5060321;28;19920;-79
2023/12/18 10:50:14;;;;;;;;;;;2.40;99.90;;;;;;5055392;28;19955;-79
2023/12/18 10:52:42;;;;;;;;;;;2.50;99.90;;;;;;5063342;28;20019;-79
2023/12/18 10:55:10;;;;;;;;;;;2.50;99.90;;;;;;5060953;28;19968;-79
2023/12/18 10:57:36;;;;;;;;;;;2.50;99.90;;;;;;5067984;28;19913;-78
2023/12/18 11:00:03;;;;;;;;;;;2.60;99.90;;;;;;5062539;28;19921;-80
2023/12/18 11:02:29;;;;;;;;;;;2.70;99.90;;;;;;5058332;28;20285;-79
2023/12/18 11:04:55;;;;;;;;;;;2.70;99.90;;;;;;5062288;28;19913;-79
2023/12/18 11:07:21;;;;;;;;;;;2.60;99.90;;;;;;5064319;28;19917;-79
2023/12/18 11:09:47;;;;;;;;;;;2.70;99.90;;;;;;5056326;28;19921;-79
2023/12/18 11:12:15;;;;;;;;;;;2.80;99.90;;;;;;5061174;28;19913;-79
2023/12/18 11:14:52;;;;;;;;;;;2.80;99.90;;;;;;5067929;28;20400;-78
2023/12/18 11:17:42;;;;;;;;;;;2.80;99.90;;;;;;5065441;28;19912;-79
2023/12/18 11:20:16;;;;;;;;;;;2.90;99.90;;;;;;5050144;28;20386;-77
2023/12/18 11:22:46;;;;;;;;;;;2.90;99.90;;;;;;5055481;28;19982;-79
2023/12/18 11:25:12;;;;;;;;;;;3.00;99.90;;;;;;5051200;28;19920;-79
2023/12/18 11:27:41;;;;;;;;;;;3.00;99.90;;;;;;5063250;28;19919;-77
2023/12/18 11:30:26;;;;;;;;;;;3.00;99.90;;;;;;5054453;28;19928;-78
2023/12/18 11:32:52;;;;;;;;;;;3.00;99.90;;;;;;5052943;28;20647;-78
2023/12/18 11:35:20;;;;;;;;;;;3.10;99.90;;;;;;5055972;28;19920;-79
2023/12/18 11:37:47;;;;;;;;;;;3.10;99.90;;;;;;5053677;28;20088;-78
2023/12/18 11:40:33;;;;;;;;;;;3.10;99.90;;;;;;5049960;28;20235;-79
2023/12/18 11:42:59;;;;;;;;;;;3.20;99.90;;;;;;5054347;28;20797;-79
2023/12/18 11:45:25;;;;;;;;;;;3.20;99.90;;;;;;5059918;28;20413;-79
2023/12/18 11:47:57;;;;;;;;;;;3.20;99.90;;;;;;5056591;28;19917;-79
2023/12/18 11:50:26;;;;;;;;;;;3.20;99.90;;;;;;5053009;28;21281;-80
2023/12/18 11:52:55;;;;;;;;;;;3.30;99.90;;;;;;5063767;28;19913;-80
2023/12/18 11:55:36;;;;;;;;;;;3.30;99.90;;;;;;5060185;28;19917;-80
2023/12/18 11:58:02;;;;;;;;;;;3.20;99.90;;;;;;5057244;28;19924;-80
2023/12/18 12:00:29;;;;;;;;;;;3.20;99.90;;;;;;5058806;28;19926;-80
2023/12/18 12:02:55;;;;;;;;;;;3.20;99.90;;;;;;5056010;28;20430;-80
2023/12/18 12:05:21;;;;;;;;;;;3.20;99.90;;;;;;5057134;28;19984;-79
2023/12/18 12:07:49;;;;;;;;;;;3.30;99.90;;;;;;5056636;28;20446;-81
2023/12/18 12:10:15;;;;;;;;;;;3.40;99.90;;;;;;5051856;28;19912;-81
2023/12/18 12:12:41;;;;;;;;;;;3.40;99.90;;;;;;5056116;28;20253;-80
2023/12/18 12:15:06;;;;;;;;;;;3.40;99.90;;;;;;5059121;28;19925;-80
2023/12/18 12:17:32;;;;;;;;;;;3.40;99.90;;;;;;5058883;28;20504;-81
2023/12/18 12:19:58;;;;;;;;;;;3.50;99.90;;;;;;5047260;28;19924;-81
2023/12/18 12:22:24;;;;;;;;;;;3.50;99.90;;;;;;5053718;28;19917;-82
2023/12/18 12:24:49;;;;;;;;;;;3.50;99.90;;;;;;5046541;28;20070;-81
2023/12/18 12:27:15;;;;;;;;;;;3.50;99.90;;;;;;5056920;28;20051;-81
2023/12/18 12:29:41;;;;;;;;;;;3.60;99.90;;;;;;5057154;28;20389;-80
2023/12/18 12:32:07;;;;;;;;;;;3.60;99.90;;;;;;5056762;28;19924;-81
2023/12/18 12:34:34;;;;;;;;;;;3.60;99.90;;;;;;5060267;28;19924;-80
2023/12/18 12:37:01;;;;;;;;;;;3.60;99.90;;;;;;5060797;28;19924;-80
2023/12/18 12:39:26;;;;;;;;;;;3.60;99.90;;;;;;5061644;28;19912;-80
2023/12/18 12:41:52;;;;;;;;;;;3.70;99.90;;;;;;5067544;28;20312;-79
2023/12/18 12:44:18;;;;;;;;;;;3.70;99.90;;;;;;5063694;28;19917;-80
2023/12/18 12:46:43;;;;;;;;;;;3.60;99.90;;;;;;5063886;28;19931;-80
2023/12/18 12:49:10;;;;;;;;;;;3.50;99.90;;;;;;5054342;28;20435;-80
2023/12/18 12:51:37;;;;;;;;;;;3.50;99.90;;;;;;5059485;28;19984;-80
2023/12/18 12:54:04;;;;;;;;;;;3.50;99.90;;;;;;5054812;28;19928;-81
2023/12/18 12:56:30;;;;;;;;;;;3.50;99.90;;;;;;5039775;28;20382;-80
2023/12/18 12:58:55;;;;;;;;;;;3.50;99.90;;;;;;5062089;28;19924;-80
2023/12/18 13:01:22;;;;;;;;;;;3.50;99.90;;;;;;5040835;28;19917;-81
2023/12/18 13:03:48;;;;;;;;;;;3.60;99.90;;;;;;5044335;28;20446;-80
2023/12/18 13:06:14;;;;;;;;;;;3.60;99.90;;;;;;5061101;28;19931;-80
2023/12/18 13:08:40;;;;;;;;;;;3.50;99.90;;;;;;5059865;28;19912;-80
2023/12/18 13:11:07;;;;;;;;;;;3.50;99.90;;;;;;5054027;28;19913;-81
2023/12/18 13:13:33;;;;;;;;;;;3.50;99.90;;;;;;5057221;28;19965;-82
2023/12/18 13:16:01;;;;;;;;;;;3.50;99.90;;;;;;5059668;28;19925;-81
2023/12/18 13:18:27;;;;;;;;;;;3.50;99.90;;;;;;5059130;28;19920;-83
2023/12/18 13:20:53;;;;;;;;;;;3.50;99.90;;;;;;5058692;28;20266;-81
2023/12/18 13:23:18;;;;;;;;;;;3.50;99.90;;;;;;5065398;28;19924;-80
2023/12/18 13:25:44;;;;;;;;;;;3.50;99.90;;;;;;5054826;28;19958;-81
2023/12/18 13:28:09;;;;;;;;;;;3.40;99.90;;;;;;5054976;28;20019;-79
2023/12/18 13:30:35;;;;;;;;;;;3.40;99.90;;;;;;5056168;28;19928;-80
2023/12/18 13:33:02;;;;;;;;;;;3.40;99.90;;;;;;5059544;28;19971;-79
2023/12/18 13:35:27;;;;;;;;;;;3.40;99.90;;;;;;5059170;28;20482;-80
2023/12/18 13:37:53;;;;;;;;;;;3.40;99.90;;;;;;5060854;28;19917;-79
2023/12/18 13:40:19;;;;;;;;;;;3.40;99.90;;;;;;5054092;28;20265;-79
2023/12/18 13:42:46;;;;;;;;;;;3.40;99.90;;;;;;5058227;28;20336;-79
2023/12/18 13:45:12;;;;;;;;;;;3.40;99.90;;;;;;5058501;28;19981;-78
2023/12/18 13:47:37;;;;;;;;;;;3.30;99.90;;;;;;5060992;28;19979;-79
2023/12/18 13:50:03;;;;;;;;;;;3.30;99.90;;;;;;5047558;28;19913;-80
2023/12/18 13:52:29;;;;;;;;;;;3.30;99.90;;;;;;5062050;28;19923;-80
2023/12/18 13:54:54;;;;;;;;;;;3.30;99.90;;;;;;5059502;28;19923;-79
2023/12/18 13:57:20;;;;;;;;;;;3.20;99.90;;;;;;5058375;28;19917;-80
2023/12/18 13:59:46;;;;;;;;;;;3.30;99.90;;;;;;5064691;28;19912;-78
2023/12/18 14:02:11;;;;;;;;;;;3.20;99.90;;;;;;5045592;28;19959;-79
2023/12/18 14:04:37;;;;;;;;;;;3.20;99.90;;;;;;5059783;28;20015;-80
2023/12/18 14:07:03;;;;;;;;;;;3.10;99.90;;;;;;5057163;28;19979;-80
2023/12/18 14:09:29;;;;;;;;;;;3.10;99.90;;;;;;5055997;28;20373;-80
2023/12/18 14:11:54;;;;;;;;;;;3.10;99.90;;;;;;5058046;28;20017;-79
2023/12/18 14:14:20;;;;;;;;;;;3.10;99.90;;;;;;5050484;28;19917;-79